Time;durP1;ratioP1;P1;durP2;ratioP2;P2;SDS_P1;SDS_P2;PMS_P1;PMS_P2;Temp;Humidity;BMP_temperature;BMP_pressure;BME280_temperature;BME280_humidity;BME280_pressure;Samples;Min_cycle;Max_cycle;Signal;HPM_P1;HPM_P2
2021/06/21 00:01:55;;;;;;;34.70;10.07;;;;;;;19.29;90.69;98279.44;5012392;28;20041;-62
2021/06/21 00:04:21;;;;;;;33.00;10.85;;;;;;;19.28;90.62;98281.34;5012982;28;20354;-63
2021/06/21 00:06:46;;;;;;;42.38;10.60;;;;;;;19.26;90.37;98266.50;5012376;28;20376;-63
2021/06/21 00:09:12;;;;;;;32.60;9.80;;;;;;;19.26;89.73;98271.94;5012842;28;20034;-63
2021/06/21 00:11:37;;;;;;;30.13;10.00;;;;;;;19.29;88.82;98268.56;5012238;28;20492;-62
2021/06/21 00:14:03;;;;;;;33.08;10.80;;;;;;;19.29;88.24;98274.00;5012862;28;20144;-63
2021/06/21 00:16:28;;;;;;;34.90;8.20;;;;;;;19.27;88.10;98284.38;5012171;28;20038;-62
2021/06/21 00:18:54;;;;;;;25.73;7.40;;;;;;;19.30;86.81;98283.75;5016561;28;20022;-63
2021/06/21 00:21:19;;;;;;;29.67;6.40;;;;;;;19.26;85.90;98280.09;5016361;28;20034;-62
2021/06/21 00:23:45;;;;;;;26.73;6.20;;;;;;;19.16;85.38;98282.00;5016652;28;20369;-66
2021/06/21 00:26:10;;;;;;;25.60;6.78;;;;;;;19.14;85.63;98286.16;5016248;28;20041;-63
2021/06/21 00:28:36;;;;;;;29.05;7.15;;;;;;;19.12;85.62;98288.41;5016439;28;20060;-62
2021/06/21 00:31:01;;;;;;;26.05;6.60;;;;;;;19.01;84.79;98296.09;5016356;28;20034;-62
2021/06/21 00:33:26;;;;;;;26.75;6.68;;;;;;;19.04;85.27;98297.38;5016666;28;20453;-62
2021/06/21 00:35:52;;;;;;;38.85;6.88;;;;;;;18.91;85.06;98294.50;5016104;28;20054;-62
2021/06/21 00:38:17;;;;;;;23.48;6.47;;;;;;;18.81;86.12;98300.25;5016452;28;20472;-62
2021/06/21 00:40:43;;;;;;;16.95;5.82;;;;;;;18.80;85.28;98309.53;5015752;28;20041;-62
2021/06/21 00:43:08;;;;;;;26.67;6.07;;;;;;;18.61;86.06;98296.22;5016499;28;20029;-63
2021/06/21 00:45:34;;;;;;;32.60;6.07;;;;;;;18.70;86.16;98296.22;5015860;28;20070;-62
2021/06/21 00:47:59;;;;;;;26.65;5.88;;;;;;;18.62;85.59;98300.53;5016415;28;20049;-62
2021/06/21 00:50:27;;;;;;;24.30;5.95;;;;;;;18.49;86.08;98304.97;5015824;28;20057;-63
2021/06/21 00:52:54;;;;;;;27.50;6.13;;;;;;;18.52;85.69;98306.25;5016142;28;20088;-62
2021/06/21 00:55:19;;;;;;;19.60;4.47;;;;;;;18.57;84.98;98306.13;5014316;28;20524;-62
2021/06/21 00:57:45;;;;;;;16.40;4.40;;;;;;;18.51;84.93;98312.81;5016031;28;20029;-62
2021/06/21 01:00:12;;;;;;;21.42;5.63;;;;;;;18.56;84.27;98307.22;4997900;28;20104;-63
2021/06/21 01:02:37;;;;;;;30.45;5.07;;;;;;;18.50;83.67;98300.38;5016087;28;20029;-63
2021/06/21 01:05:07;;;;;;;18.20;5.07;;;;;;;18.54;83.50;98309.44;5015546;28;20490;-63
2021/06/21 01:07:33;;;;;;;30.52;4.90;;;;;;;18.49;83.70;98310.38;5015884;28;20298;-63
2021/06/21 01:09:58;;;;;;;17.98;4.30;;;;;;;18.42;83.43;98309.25;5015844;28;20029;-62
2021/06/21 01:12:48;;;;;;;23.67;4.88;;;;;;;18.39;83.22;98309.91;5015455;28;20064;-62
2021/06/21 01:15:15;;;;;;;21.55;4.38;;;;;;;18.36;83.50;98305.91;5015353;28;20468;-63
2021/06/21 01:18:03;;;;;;;23.95;4.70;;;;;;;18.22;82.93;98318.78;4998287;28;20069;-62
2021/06/21 01:21:00;;;;;;;19.50;4.20;;;;;;;18.30;83.56;98318.81;5015482;28;20377;-62
2021/06/21 01:23:53;;;;;;;19.83;3.92;;;;;;;18.27;82.87;98308.63;5014541;28;20026;-63
2021/06/21 01:26:22;;;;;;;31.27;4.32;;;;;;;18.11;84.00;98307.44;5015304;28;20069;-62
2021/06/21 01:28:59;;;;;;;31.92;5.47;;;;;;;17.96;83.86;98303.25;4993799;28;20025;-63
2021/06/21 01:31:29;;;;;;;21.95;3.83;;;;;;;17.98;83.83;98309.16;5013885;28;20038;-63
2021/06/21 01:33:54;;;;;;;17.38;3.80;;;;;;;17.97;84.30;98293.19;4982156;28;20033;-63
2021/06/21 01:36:20;;;;;;;21.50;4.55;;;;;;;17.85;83.90;98286.47;5013622;28;20148;-62
2021/06/21 01:38:52;;;;;;;23.48;4.13;;;;;;;17.82;84.40;98281.69;4997649;28;20029;-62
2021/06/21 01:41:25;;;;;;;31.65;4.25;;;;;;;17.67;83.55;98279.31;4997815;28;20034;-62
2021/06/21 01:43:52;;;;;;;19.55;3.83;;;;;;;17.56;83.76;98276.09;5014224;28;20025;-62
2021/06/21 01:46:18;;;;;;;23.23;3.75;;;;;;;17.42;84.20;98272.66;5013651;28;20425;-62
2021/06/21 01:48:50;;;;;;;17.95;3.75;;;;;;;17.50;84.43;98273.81;5013970;28;20053;-63
2021/06/21 01:51:17;;;;;;;23.17;3.85;;;;;;;17.36;83.93;98272.00;5014734;28;20030;-62
2021/06/21 01:53:42;;;;;;;20.23;3.80;;;;;;;17.36;84.09;98274.72;5013804;28;20032;-62
2021/06/21 01:56:12;;;;;;;16.92;3.47;;;;;;;17.35;83.95;98272.34;4996729;28;20046;-62
2021/06/21 01:58:38;;;;;;;22.17;3.45;;;;;;;17.23;84.66;98268.28;5014029;28;20037;-63
2021/06/21 02:01:05;;;;;;;16.23;3.63;;;;;;;17.23;84.84;98264.78;5014439;28;20041;-62
2021/06/21 02:03:30;;;;;;;19.45;3.67;;;;;;;17.10;85.16;98269.16;5013673;28;20033;-62
2021/06/21 02:05:56;;;;;;;17.23;4.07;;;;;;;17.03;85.55;98264.16;4991702;28;20039;-62
2021/06/21 02:08:21;;;;;;;21.25;4.55;;;;;;;16.95;85.32;98256.78;4993906;28;20033;-62
2021/06/21 02:10:51;;;;;;;23.33;3.95;;;;;;;16.89;86.67;98260.72;4994866;28;20033;-62
2021/06/21 02:13:17;;;;;;;16.45;3.15;;;;;;;16.86;85.77;98249.72;4993849;28;20034;-62
2021/06/21 02:15:43;;;;;;;17.95;3.90;;;;;;;16.82;85.94;98244.09;4977374;28;20035;-62
2021/06/21 02:18:08;;;;;;;16.85;4.18;;;;;;;16.79;85.79;98245.50;4977745;28;20418;-62
2021/06/21 02:20:34;;;;;;;14.98;3.72;;;;;;;16.71;85.95;98237.31;4994420;28;20026;-63
2021/06/21 02:23:00;;;;;;;18.48;3.78;;;;;;;16.64;86.55;98245.84;4993614;28;20030;-62
2021/06/21 02:25:25;;;;;;;19.77;3.65;;;;;;;16.65;86.30;98243.94;4960899;28;20042;-63
2021/06/21 02:27:50;;;;;;;17.63;3.80;;;;;;;16.58;86.47;98234.34;4994743;28;20031;-62
2021/06/21 02:30:16;;;;;;;18.73;4.15;;;;;;;16.59;86.11;98235.16;4976956;28;20022;-62
2021/06/21 02:32:43;;;;;;;17.90;3.38;;;;;;;16.57;86.45;98240.06;4994786;28;20037;-62
2021/06/21 02:35:09;;;;;;;15.60;4.28;;;;;;;16.53;86.97;98237.19;4992898;28;20448;-61
2021/06/21 02:37:36;;;;;;;24.42;4.93;;;;;;;16.66;86.50;98245.56;4993266;28;20026;-62
2021/06/21 02:40:02;;;;;;;23.08;4.00;;;;;;;16.68;85.83;98251.47;4993763;28;20027;-62
2021/06/21 02:42:28;;;;;;;23.95;4.75;;;;;;;16.50;86.70;98258.59;4994487;28;20488;-62
2021/06/21 02:44:53;;;;;;;19.30;4.38;;;;;;;16.49;86.92;98257.81;4994372;28;20053;-62
2021/06/21 02:47:19;;;;;;;17.40;4.20;;;;;;;16.46;86.83;98269.25;4993872;28;20046;-62
2021/06/21 02:49:45;;;;;;;14.20;4.07;;;;;;;16.47;86.73;98273.53;4994401;28;20031;-63
2021/06/21 02:52:28;;;;;;;20.35;3.90;;;;;;;16.41;86.98;98271.28;4976402;28;20030;-62
2021/06/21 02:55:12;;;;;;;26.67;5.13;;;;;;;16.36;87.31;98288.41;4994603;28;20464;-62
2021/06/21 02:57:46;;;;;;;22.40;3.80;;;;;;;16.33;87.13;98286.31;4992900;28;20062;-62
2021/06/21 03:00:12;;;;;;;15.07;3.97;;;;;;;16.40;86.78;98289.41;4993749;28;20396;-62
2021/06/21 03:02:38;;;;;;;19.25;4.25;;;;;;;16.38;86.60;98291.59;4994032;28;20105;-62
2021/06/21 03:05:04;;;;;;;18.23;4.70;;;;;;;16.44;87.20;98295.78;4992214;28;20089;-62
2021/06/21 03:07:29;;;;;;;16.98;4.35;;;;;;;16.41;86.95;98304.53;4992731;28;20045;-62
2021/06/21 03:09:54;;;;;;;16.73;3.97;;;;;;;16.47;86.43;98303.28;4994079;28;20488;-62
2021/06/21 03:12:25;;;;;;;19.48;4.38;;;;;;;16.40;86.63;98286.69;4976157;28;20088;-62
2021/06/21 03:14:51;;;;;;;15.90;4.07;;;;;;;16.39;86.83;98287.78;4992519;28;20496;-62
2021/06/21 03:17:17;;;;;;;17.58;4.70;;;;;;;16.34;87.22;98298.72;4992060;28;20038;-62
2021/06/21 03:19:43;;;;;;;24.00;5.22;;;;;;;16.44;87.01;98290.38;4976664;28;20481;-62
2021/06/21 03:22:08;;;;;;;14.82;4.43;;;;;;;16.57;87.09;98284.16;4992165;28;20065;-62
2021/06/21 03:24:34;;;;;;;16.38;4.85;;;;;;;16.51;86.14;98285.38;5005636;28;20022;-62
2021/06/21 03:26:59;;;;;;;21.77;4.45;;;;;;;16.36;87.30;98296.50;5012951;28;20042;-62
2021/06/21 03:29:25;;;;;;;23.08;5.05;;;;;;;16.49;86.82;98292.19;5012138;28;20498;-62
2021/06/21 03:31:51;;;;;;;19.55;6.22;;;;;;;16.48;86.79;98283.28;4995251;28;20042;-62
2021/06/21 03:34:18;;;;;;;12.98;5.10;;;;;;;16.50;86.94;98283.78;5013488;28;20033;-62
2021/06/21 03:36:44;;;;;;;16.70;4.63;;;;;;;16.56;87.36;98285.25;5012819;28;20481;-62
2021/06/21 03:39:09;;;;;;;18.50;5.15;;;;;;;16.53;87.23;98285.06;5011907;28;20029;-62
2021/06/21 03:41:35;;;;;;;22.52;5.50;;;;;;;16.48;87.30;98294.09;5012915;28;20481;-62
2021/06/21 03:44:00;;;;;;;23.15;5.57;;;;;;;16.46;87.61;98290.88;5013119;28;20523;-62
2021/06/21 03:46:26;;;;;;;16.80;4.57;;;;;;;16.47;87.07;98289.75;5011454;28;20427;-62
2021/06/21 03:48:51;;;;;;;20.25;5.35;;;;;;;16.55;86.85;98288.28;5013122;28;20380;-62
2021/06/21 03:51:18;;;;;;;21.15;5.20;;;;;;;16.62;86.52;98288.63;5012618;28;20037;-62
2021/06/21 03:53:44;;;;;;;14.27;4.82;;;;;;;16.63;86.51;98276.72;5012669;28;20052;-62
2021/06/21 03:56:09;;;;;;;16.30;4.95;;;;;;;16.69;86.59;98289.00;5012387;28;20045;-63
2021/06/21 03:58:34;;;;;;;19.73;5.68;;;;;;;16.74;86.79;98297.00;5012839;28;20049;-62
2021/06/21 04:01:00;;;;;;;12.57;5.95;;;;;;;16.73;86.85;98302.75;5012302;28;20037;-61
2021/06/21 04:03:25;;;;;;;16.80;6.55;;;;;;;16.76;86.87;98304.84;5012827;28;20096;-62
2021/06/21 04:05:51;;;;;;;16.27;6.55;;;;;;;16.80;87.02;98305.88;5012451;28;20034;-62
2021/06/21 04:08:17;;;;;;;21.80;5.85;;;;;;;16.87;86.64;98308.94;5012579;28;20034;-62
2021/06/21 04:10:43;;;;;;;16.95;7.10;;;;;;;16.70;87.81;98303.34;5012125;28;20054;-63
2021/06/21 04:13:09;;;;;;;17.80;7.45;;;;;;;16.75;88.52;98308.66;5012608;28;20068;-62
2021/06/21 04:15:35;;;;;;;18.35;7.68;;;;;;;16.65;88.92;98304.28;5012027;28;20045;-63
2021/06/21 04:18:04;;;;;;;20.33;8.10;;;;;;;16.63;89.51;98309.19;5011404;28;20026;-62
2021/06/21 04:20:30;;;;;;;20.90;8.25;;;;;;;16.53;90.08;98312.91;5012365;28;20033;-62
2021/06/21 04:22:56;;;;;;;20.23;9.45;;;;;;;16.67;90.38;98312.06;5012607;28;20110;-62
2021/06/21 04:25:21;;;;;;;17.55;9.20;;;;;;;16.59;90.26;98306.28;5012286;28;20503;-62
2021/06/21 04:27:47;;;;;;;26.52;9.02;;;;;;;16.59;90.26;98305.47;5012554;28;20014;-62
2021/06/21 04:30:14;;;;;;;15.55;9.05;;;;;;;16.77;90.01;98309.13;5012326;28;20018;-62
2021/06/21 04:32:40;;;;;;;27.75;9.40;;;;;;;16.76;89.79;98311.03;5012720;28;20436;-62
2021/06/21 04:35:07;;;;;;;19.20;9.00;;;;;;;16.67;89.90;98317.47;5012189;28;20037;-62
2021/06/21 04:37:32;;;;;;;15.50;9.02;;;;;;;16.85;90.35;98319.28;5012435;28;20188;-62
2021/06/21 04:39:58;;;;;;;21.25;10.32;;;;;;;16.69;90.60;98309.88;5012434;28;20128;-62
2021/06/21 04:42:23;;;;;;;27.05;10.50;;;;;;;16.84;90.58;98317.66;5011888;28;20034;-62
2021/06/21 04:44:49;;;;;;;19.02;9.80;;;;;;;16.67;91.20;98323.69;5012309;28;20053;-62
2021/06/21 04:47:14;;;;;;;21.77;11.98;;;;;;;16.67;90.72;98322.88;5011844;28;20045;-62
2021/06/21 04:49:40;;;;;;;26.30;10.70;;;;;;;16.66;91.03;98315.88;5012685;28;20025;-62
2021/06/21 04:52:08;;;;;;;24.42;10.82;;;;;;;16.85;90.50;98324.69;5011954;28;20452;-62
2021/06/21 04:54:34;;;;;;;16.95;11.10;;;;;;;16.91;90.69;98328.06;5012384;28;20383;-62
2021/06/21 04:56:59;;;;;;;19.65;9.85;;;;;;;17.08;90.01;98327.41;5011767;28;20050;-62
2021/06/21 04:59:25;;;;;;;18.13;10.25;;;;;;;17.06;89.44;98324.22;5010768;28;20057;-62
2021/06/21 05:01:50;;;;;;;20.38;9.73;;;;;;;17.16;88.88;98323.97;5011790;28;20034;-62
2021/06/21 05:04:16;;;;;;;17.50;9.43;;;;;;;17.19;88.67;98323.34;5014578;28;20037;-62
2021/06/21 05:06:41;;;;;;;15.02;8.57;;;;;;;17.19;88.16;98328.75;5015596;28;20040;-62
2021/06/21 05:09:07;;;;;;;19.02;8.57;;;;;;;17.33;87.34;98328.72;5015949;28;20368;-62
2021/06/21 05:11:33;;;;;;;19.17;8.23;;;;;;;17.31;87.31;98329.00;5015520;28;20048;-62
2021/06/21 05:14:00;;;;;;;18.33;7.72;;;;;;;17.36;87.18;98328.09;5016054;28;20030;-62
2021/06/21 05:16:25;;;;;;;18.27;7.63;;;;;;;17.45;87.25;98332.47;5015493;28;20074;-62
2021/06/21 05:18:50;;;;;;;20.17;7.70;;;;;;;17.45;87.10;98327.03;5015829;28;20084;-63
2021/06/21 05:21:16;;;;;;;15.98;7.10;;;;;;;17.56;86.36;98333.00;5015501;28;20026;-62
2021/06/21 05:23:41;;;;;;;16.80;6.88;;;;;;;17.73;85.51;98326.88;5016073;28;20096;-62
2021/06/21 05:26:07;;;;;;;16.50;6.00;;;;;;;18.04;84.09;98331.50;5015335;28;20377;-62
2021/06/21 05:28:32;;;;;;;17.50;5.75;;;;;;;17.94;84.57;98326.34;5015925;28;20022;-62
2021/06/21 05:30:58;;;;;;;13.32;5.78;;;;;;;18.03;83.64;98329.91;5015489;28;20497;-61
2021/06/21 05:33:23;;;;;;;13.32;5.63;;;;;;;18.05;83.63;98333.91;5015653;28;20022;-62
2021/06/21 05:35:49;;;;;;;12.50;5.00;;;;;;;18.55;81.45;98332.78;4997071;28;20048;-62
2021/06/21 05:38:14;;;;;;;19.15;5.30;;;;;;;18.79;80.58;98342.41;5015820;28;20049;-62
2021/06/21 05:40:40;;;;;;;10.68;4.60;;;;;;;20.77;72.02;98339.47;5013765;28;20034;-62
2021/06/21 05:43:05;;;;;;;11.80;3.40;;;;;;;22.34;65.11;98348.81;5014374;28;20076;-62
2021/06/21 05:45:31;;;;;;;12.93;3.13;;;;;;;23.70;61.45;98341.84;5013772;28;20065;-63
2021/06/21 05:47:56;;;;;;;12.15;4.03;;;;;;;25.61;54.98;98342.28;5014012;28;20040;-61
2021/06/21 05:50:21;;;;;;;8.90;2.85;;;;;;;23.56;61.23;98342.25;5014932;28;20042;-62
2021/06/21 05:52:50;;;;;;;12.25;3.20;;;;;;;25.92;54.43;98341.28;5015421;28;20029;-63
2021/06/21 05:55:18;;;;;;;13.15;2.80;;;;;;;26.63;51.06;98341.66;5014962;28;20084;-61
2021/06/21 05:57:43;;;;;;;12.43;2.72;;;;;;;26.21;52.31;98339.03;5015045;28;20030;-61
2021/06/21 06:00:09;;;;;;;11.52;3.28;;;;;;;26.04;51.77;98335.59;5014522;28;20571;-60
2021/06/21 06:02:35;;;;;;;13.32;3.05;;;;;;;26.35;51.07;98333.72;5015180;28;20034;-61
2021/06/21 06:05:00;;;;;;;10.85;3.10;;;;;;;25.38;53.75;98329.28;5014807;28;20392;-62
2021/06/21 06:07:26;;;;;;;8.45;2.58;;;;;;;23.41;58.53;98330.16;5015065;28;20033;-60
2021/06/21 06:09:51;;;;;;;13.57;2.70;;;;;;;23.74;57.51;98342.78;5014875;28;20033;-61
2021/06/21 06:12:17;;;;;;;9.00;3.20;;;;;;;24.55;56.56;98336.94;5014451;28;20045;-61
2021/06/21 06:14:43;;;;;;;13.65;3.00;;;;;;;24.30;55.92;98342.59;5014446;28;20026;-61
2021/06/21 06:17:11;;;;;;;9.65;2.50;;;;;;;24.53;55.39;98347.44;5014236;28;20053;-61
2021/06/21 06:19:36;;;;;;;7.82;2.42;;;;;;;22.81;61.11;98356.50;5014562;28;20116;-60
2021/06/21 06:22:02;;;;;;;8.80;2.72;;;;;;;23.11;59.96;98339.84;5014312;28;20049;-62
2021/06/21 06:24:27;;;;;;;14.40;3.22;;;;;;;24.29;56.23;98346.50;5014529;28;20480;-61
2021/06/21 06:26:53;;;;;;;11.77;2.72;;;;;;;25.21;52.36;98348.13;5012697;28;20400;-61
2021/06/21 06:29:19;;;;;;;9.98;2.72;;;;;;;26.01;50.81;98354.78;5014408;28;20022;-61
2021/06/21 06:31:46;;;;;;;6.28;2.40;;;;;;;25.55;50.87;98344.50;5014104;28;20526;-61
2021/06/21 06:34:12;;;;;;;9.50;2.50;;;;;;;25.56;51.80;98361.75;5014633;28;20025;-61
2021/06/21 06:36:37;;;;;;;13.50;2.80;;;;;;;26.97;47.35;98368.41;5014221;28;20482;-61
2021/06/21 06:39:04;;;;;;;10.48;2.53;;;;;;;24.20;54.67;98359.56;5014508;28;20026;-61
2021/06/21 06:41:30;;;;;;;10.20;2.42;;;;;;;23.07;59.03;98360.84;5014002;28;20480;-61
2021/06/21 06:43:55;;;;;;;8.02;2.72;;;;;;;22.32;61.68;98367.50;5014469;28;20029;-62
2021/06/21 06:46:20;;;;;;;9.90;2.42;;;;;;;23.37;58.30;98362.06;5014056;28;20045;-62
2021/06/21 06:48:46;;;;;;;9.70;2.90;;;;;;;23.93;56.47;98369.44;5014250;28;20026;-61
2021/06/21 06:51:11;;;;;;;11.60;2.70;;;;;;;25.57;52.04;98375.13;5012459;28;20038;-61
2021/06/21 06:53:50;;;;;;;10.57;2.67;;;;;;;23.82;55.70;98371.91;4996461;28;20030;-61
2021/06/21 06:59:07;;;;;;;9.60;2.67;;;;;;;22.09;62.34;98376.09;5012925;28;20057;-61
2021/06/21 07:01:33;;;;;;;6.13;2.40;;;;;;;21.44;64.56;98375.00;5013983;28;20037;-62
2021/06/21 07:03:59;;;;;;;7.15;2.50;;;;;;;21.14;65.08;98380.50;5013796;28;20045;-61
2021/06/21 07:06:24;;;;;;;11.50;2.45;;;;;;;20.17;67.25;98381.41;5013465;28;20049;-61
2021/06/21 07:08:49;;;;;;;10.15;2.50;;;;;;;20.05;69.28;98373.91;5014079;28;20034;-61
2021/06/21 07:11:15;;;;;;;8.35;2.70;;;;;;;20.10;69.46;98381.09;5013401;28;20479;-61
2021/06/21 07:13:41;;;;;;;8.93;2.58;;;;;;;20.12;69.58;98384.28;5013714;28;20116;-61
2021/06/21 07:16:07;;;;;;;9.75;2.60;;;;;;;19.73;70.50;98384.25;5013217;28;20181;-61
2021/06/21 07:18:33;;;;;;;6.70;3.38;;;;;;;19.84;71.27;98384.69;5012316;28;20050;-61
2021/06/21 07:20:58;;;;;;;8.25;2.90;;;;;;;19.97;69.92;98385.63;5013561;28;20045;-63
2021/06/21 07:23:24;;;;;;;7.30;2.92;;;;;;;20.17;69.53;98384.13;5013838;28;20046;-61
2021/06/21 07:25:49;;;;;;;6.28;2.55;;;;;;;20.06;69.34;98374.72;5011809;28;20038;-61
2021/06/21 07:28:16;;;;;;;8.57;2.50;;;;;;;20.73;66.67;98381.31;5012840;28;20025;-63
2021/06/21 07:30:43;;;;;;;8.65;2.65;;;;;;;21.89;63.02;98393.31;5013006;28;20057;-62
2021/06/21 07:33:08;;;;;;;10.35;2.63;;;;;;;21.49;64.66;98396.59;5012968;28;20045;-61
2021/06/21 07:35:33;;;;;;;5.40;2.30;;;;;;;21.03;65.24;98401.13;5012866;28;20041;-61
2021/06/21 07:37:59;;;;;;;6.30;2.45;;;;;;;21.01;65.98;98406.09;5013253;28;20030;-61
2021/06/21 07:40:24;;;;;;;8.35;2.90;;;;;;;20.74;66.74;98410.91;5012938;28;20044;-62
2021/06/21 07:42:51;;;;;;;9.13;2.50;;;;;;;21.03;65.89;98420.97;5013319;28;20029;-63
2021/06/21 07:45:16;;;;;;;9.20;2.55;;;;;;;20.26;68.63;98415.59;4995565;28;20034;-61
2021/06/21 07:47:42;;;;;;;7.30;2.60;;;;;;;20.31;68.39;98425.50;5013518;28;20084;-61
2021/06/21 07:50:07;;;;;;;11.73;2.78;;;;;;;20.35;68.88;98421.00;5013135;28;20091;-61
2021/06/21 07:52:33;;;;;;;8.27;2.70;;;;;;;20.32;68.85;98426.28;5013361;28;20461;-61
2021/06/21 07:54:59;;;;;;;8.23;2.67;;;;;;;20.41;68.87;98421.63;5013158;28;20021;-61
2021/06/21 07:57:27;;;;;;;11.75;2.80;;;;;;;20.38;68.44;98414.91;5012698;28;20049;-61
2021/06/21 07:59:53;;;;;;;9.95;2.90;;;;;;;21.29;65.07;98412.63;5012914;28;20053;-61
2021/06/21 08:02:18;;;;;;;6.88;2.95;;;;;;;23.95;56.11;98430.09;5012574;28;20033;-61
2021/06/21 08:04:47;;;;;;;7.35;2.40;;;;;;;24.64;54.10;98438.91;5013031;28;20022;-61
2021/06/21 08:07:12;;;;;;;9.63;2.70;;;;;;;23.56;57.03;98432.50;5011235;28;20038;-62
2021/06/21 08:09:38;;;;;;;11.98;2.40;;;;;;;22.20;61.79;98427.53;5012968;28;20491;-61
2021/06/21 08:12:04;;;;;;;7.90;2.55;;;;;;;21.90;62.44;98428.44;5012261;28;20092;-61
2021/06/21 08:14:29;;;;;;;8.57;2.42;;;;;;;21.81;64.05;98432.41;5012850;28;20448;-62
2021/06/21 08:16:55;;;;;;;7.70;2.70;;;;;;;21.48;64.49;98433.19;5012571;28;20046;-61
2021/06/21 08:19:20;;;;;;;10.40;3.13;;;;;;;21.74;63.02;98431.03;5013057;28;20037;-61
2021/06/21 08:21:46;;;;;;;9.00;2.40;;;;;;;23.33;57.65;98421.31;5011212;28;20038;-62
2021/06/21 08:24:11;;;;;;;8.38;2.58;;;;;;;23.45;56.79;98425.97;5011719;28;20026;-62
2021/06/21 08:26:37;;;;;;;6.43;2.50;;;;;;;23.96;55.45;98425.41;5012043;28;20057;-61
2021/06/21 08:29:03;;;;;;;9.95;3.05;;;;;;;23.23;56.69;98425.31;5011720;28;20540;-62
2021/06/21 08:31:28;;;;;;;5.10;2.30;;;;;;;23.61;56.32;98420.53;5012451;28;20050;-61
2021/06/21 08:33:54;;;;;;;7.53;3.00;;;;;;;25.13;51.70;98432.94;5013002;28;20037;-62
2021/06/21 08:36:19;;;;;;;8.13;2.67;;;;;;;24.08;53.54;98428.88;5012393;28;20042;-62
2021/06/21 08:38:44;;;;;;;4.97;2.75;;;;;;;24.93;51.47;98450.53;5014523;28;20041;-61
2021/06/21 08:41:11;;;;;;;5.63;2.50;;;;;;;23.65;56.99;98449.56;5016394;28;20049;-62
2021/06/21 08:43:37;;;;;;;9.93;2.47;;;;;;;22.96;57.58;98445.97;5016575;28;20069;-61
2021/06/21 08:46:03;;;;;;;5.40;2.47;;;;;;;22.18;59.62;98455.91;5016160;28;20144;-61
2021/06/21 08:48:30;;;;;;;9.13;2.45;;;;;;;23.43;56.08;98445.44;4999114;28;20520;-61
2021/06/21 08:50:57;;;;;;;8.13;2.40;;;;;;;26.00;49.27;98450.03;5016055;28;20129;-61
2021/06/21 08:53:23;;;;;;;7.85;2.50;;;;;;;26.54;47.76;98448.28;4998936;28;20472;-61
2021/06/21 08:55:50;;;;;;;6.30;2.50;;;;;;;23.68;55.41;98442.63;5015937;28;20045;-63
2021/06/21 08:58:15;;;;;;;8.15;2.70;;;;;;;23.64;55.39;98452.69;5016652;28;20038;-63
2021/06/21 09:00:41;;;;;;;8.35;2.75;;;;;;;24.73;52.31;98441.44;5015979;28;20463;-65
2021/06/21 09:03:06;;;;;;;8.02;2.42;;;;;;;24.83;51.30;98448.31;5016523;28;20026;-62
2021/06/21 09:05:33;;;;;;;8.90;2.60;;;;;;;25.27;50.86;98442.69;4998367;28;20038;-61
2021/06/21 09:08:06;;;;;;;11.80;2.88;;;;;;;24.54;52.65;98451.19;5016211;28;20029;-62
2021/06/21 09:10:32;;;;;;;9.00;2.90;;;;;;;23.39;56.55;98451.97;5015795;28;20038;-62
2021/06/21 09:13:02;;;;;;;13.32;2.72;;;;;;;25.75;49.79;98459.72;5016176;28;20120;-62
2021/06/21 09:15:31;;;;;;;;;;;;;;;24.52;52.67;98458.16;5014667;28;20122;-62
2021/06/21 09:17:57;;;;;;;6.13;3.05;;;;;;;24.57;52.16;98455.16;5014849;28;19913;-61
2021/06/21 09:20:22;;;;;;;7.70;2.88;;;;;;;25.40;50.95;98460.59;5015609;28;20045;-63
2021/06/21 09:22:53;;;;;;;8.70;2.78;;;;;;;24.77;52.02;98469.72;5016047;28;20018;-62
2021/06/21 09:25:19;;;;;;;6.13;2.95;;;;;;;24.92;51.89;98466.16;5015514;28;20042;-62
2021/06/21 09:27:56;;;;;;;9.13;2.70;;;;;;;25.07;51.40;98472.78;5015323;28;20040;-62
2021/06/21 09:30:22;;;;;;;8.70;2.53;;;;;;;25.28;51.51;98482.66;5014122;28;20042;-62
2021/06/21 09:32:55;;;;;;;8.15;2.58;;;;;;;25.65;50.09;98476.78;5015919;28;20021;-62
2021/06/21 09:35:26;;;;;;;7.88;2.75;;;;;;;25.42;50.86;98469.25;5014018;28;20095;-63
2021/06/21 09:37:52;;;;;;;7.85;2.88;;;;;;;26.71;48.17;98477.22;5015839;28;20492;-63
2021/06/21 09:40:39;;;;;;;9.32;3.10;;;;;;;26.09;48.58;98466.31;5015271;28;20114;-61
2021/06/21 09:43:25;;;;;;;7.93;2.65;;;;;;;24.98;51.24;98463.94;5015603;28;20133;-61
2021/06/21 09:46:16;;;;;;;8.48;3.05;;;;;;;24.26;53.12;98470.41;5015287;28;20212;-61
2021/06/21 09:48:52;;;;;;;7.57;2.80;;;;;;;23.18;54.74;98463.84;5015460;28;20026;-61
2021/06/21 09:51:17;;;;;;;8.35;2.70;;;;;;;22.74;56.70;98480.03;5014174;28;20049;-61
2021/06/21 09:54:10;;;;;;;8.38;3.35;;;;;;;22.53;57.14;98499.22;5014161;28;20064;-63
2021/06/21 09:56:47;;;;;;;8.07;2.90;;;;;;;22.85;57.11;98501.44;5013607;28;20042;-61
2021/06/21 09:59:29;;;;;;;7.57;3.00;;;;;;;22.69;58.23;98504.00;5015117;28;20046;-61
2021/06/21 10:02:03;;;;;;;9.43;3.20;;;;;;;22.61;57.57;98501.06;5014982;28;20041;-61
2021/06/21 10:04:29;;;;;;;10.65;2.80;;;;;;;22.82;57.40;98505.63;5013944;28;20026;-61
2021/06/21 10:06:54;;;;;;;7.03;3.03;;;;;;;22.93;57.48;98508.69;5014679;28;20038;-61
2021/06/21 10:09:19;;;;;;;10.05;3.05;;;;;;;22.44;58.57;98512.19;5014923;28;20076;-62
2021/06/21 10:11:46;;;;;;;6.78;3.00;;;;;;;22.24;58.58;98507.56;5014337;28;20040;-62
2021/06/21 10:14:17;;;;;;;8.85;3.13;;;;;;;22.45;58.82;98516.50;5014877;28;20129;-62
2021/06/21 10:16:43;;;;;;;6.57;3.15;;;;;;;22.23;59.54;98514.19;5014452;28;20050;-63
2021/06/21 10:19:09;;;;;;;6.82;2.80;;;;;;;21.85;60.04;98507.78;5014825;28;20391;-63
2021/06/21 10:21:37;;;;;;;5.93;2.75;;;;;;;21.49;61.55;98513.81;5014436;28;20049;-62
2021/06/21 10:24:03;;;;;;;7.30;3.05;;;;;;;21.52;61.83;98521.34;5014529;28;20032;-62
2021/06/21 10:26:28;;;;;;;7.05;3.35;;;;;;;21.53;62.07;98517.50;5014250;28;20046;-61
2021/06/21 10:28:54;;;;;;;7.57;3.30;;;;;;;21.55;62.32;98523.41;4997147;28;20064;-61
2021/06/21 10:31:38;;;;;;;7.43;3.00;;;;;;;21.79;60.82;98521.94;5014320;28;20088;-61
2021/06/21 10:34:04;;;;;;;6.88;2.92;;;;;;;22.16;60.45;98526.41;5013339;28;20032;-63
2021/06/21 10:36:52;;;;;;;6.05;3.30;;;;;;;22.09;60.42;98528.91;5012734;28;20378;-62
2021/06/21 10:39:25;;;;;;;9.20;3.25;;;;;;;22.17;60.26;98530.75;5014864;28;20068;-62
2021/06/21 10:42:09;;;;;;;8.45;2.95;;;;;;;21.83;61.72;98525.59;5013960;28;20503;-61
2021/06/21 10:45:00;;;;;;;6.32;2.50;;;;;;;22.48;60.02;98534.16;5014387;28;20025;-62
2021/06/21 10:47:36;;;;;;;6.00;2.92;;;;;;;23.07;58.08;98533.78;5014449;28;20068;-61
2021/06/21 10:50:05;;;;;;;9.35;2.90;;;;;;;23.82;56.13;98530.59;5013889;28;20029;-62
2021/06/21 10:52:37;;;;;;;7.35;2.97;;;;;;;24.43;53.93;98532.25;5014896;28;20045;-62
2021/06/21 10:55:21;;;;;;;5.13;3.10;;;;;;;24.06;55.13;98545.31;5012925;28;20472;-62
2021/06/21 10:57:50;;;;;;;6.85;2.80;;;;;;;24.79;54.14;98540.59;5014779;28;20080;-62
2021/06/21 11:00:17;;;;;;;6.70;2.88;;;;;;;24.10;55.71;98552.50;5012734;28;20124;-62
2021/06/21 11:02:43;;;;;;;7.40;3.10;;;;;;;24.74;54.47;98547.97;5012933;28;20030;-62
2021/06/21 11:05:09;;;;;;;6.28;2.60;;;;;;;26.02;51.98;98549.31;5012865;28;20433;-62
2021/06/21 11:07:35;;;;;;;6.22;2.63;;;;;;;25.51;51.35;98552.16;5013223;28;20519;-61
2021/06/21 11:10:02;;;;;;;6.25;2.65;;;;;;;24.29;53.48;98562.81;5013204;28;20456;-62
2021/06/21 11:12:30;;;;;;;5.28;2.78;;;;;;;24.81;52.36;98562.97;5013837;28;20133;-62
2021/06/21 11:17:32;;;;;;;5.00;2.45;;;;;;;24.60;52.14;98580.47;5013330;28;20198;-62
2021/06/21 11:19:58;;;;;;;4.63;2.55;;;;;;;24.70;51.58;98582.69;5014236;28;20025;-62
2021/06/21 11:22:42;;;;;;;5.47;2.67;;;;;;;24.19;53.96;98574.25;5013492;28;20042;-62
2021/06/21 11:25:27;;;;;;;7.97;3.08;;;;;;;23.80;55.51;98578.59;5013059;28;20468;-62
2021/06/21 11:27:53;;;;;;;8.40;2.90;;;;;;;23.08;58.13;98586.50;5012538;28;20030;-62
2021/06/21 11:30:27;;;;;;;4.47;2.40;;;;;;;23.53;56.54;98577.38;5013244;28;20412;-62
2021/06/21 11:33:00;;;;;;;6.47;3.05;;;;;;;23.51;55.72;98590.59;5013454;28;20045;-62
2021/06/21 11:35:56;;;;;;;7.60;2.97;;;;;;;23.43;55.35;98582.16;5012036;28;20034;-62
2021/06/21 11:38:23;;;;;;;4.22;2.25;;;;;;;23.77;54.88;98582.81;5013159;28;20061;-62